sensor_id;sensor_type;location;lat;lon;timestamp;temperature;humidity
72288;SHT31;60221;45.696;16.076;2022-09-17T00:01:09;19.35;65.62
72288;SHT31;60221;45.696;16.076;2022-09-17T00:03:37;19.05;66.27
72288;SHT31;60221;45.696;16.076;2022-09-17T00:06:10;18.93;66.85
72288;SHT31;60221;45.696;16.076;2022-09-17T00:08:40;19.07;67.10
72288;SHT31;60221;45.696;16.076;2022-09-17T00:11:21;19.03;66.64
72288;SHT31;60221;45.696;16.076;2022-09-17T00:13:46;18.94;67.13
72288;SHT31;60221;45.696;16.076;2022-09-17T00:16:20;18.94;67.19
72288;SHT31;60221;45.696;16.076;2022-09-17T00:18:42;18.90;67.42
72288;SHT31;60221;45.696;16.076;2022-09-17T00:21:18;18.87;67.55
72288;SHT31;60221;45.696;16.076;2022-09-17T00:23:45;18.84;67.25
72288;SHT31;60221;45.696;16.076;2022-09-17T00:26:12;18.80;67.35
72288;SHT31;60221;45.696;16.076;2022-09-17T00:28:39;18.73;67.44
72288;SHT31;60221;45.696;16.076;2022-09-17T00:31:08;18.63;67.70
72288;SHT31;60221;45.696;16.076;2022-09-17T00:33:35;18.53;68.00
72288;SHT31;60221;45.696;16.076;2022-09-17T00:36:03;18.66;68.19
72288;SHT31;60221;45.696;16.076;2022-09-17T00:38:31;18.87;67.89
72288;SHT31;60221;45.696;16.076;2022-09-17T00:40:59;19.18;67.02
72288;SHT31;60221;45.696;16.076;2022-09-17T00:48:48;19.15;65.70
72288;SHT31;60221;45.696;16.076;2022-09-17T00:51:20;19.01;65.91
72288;SHT31;60221;45.696;16.076;2022-09-17T00:53:47;18.93;66.20
72288;SHT31;60221;45.696;16.076;2022-09-17T00:58:51;18.77;66.98
72288;SHT31;60221;45.696;16.076;2022-09-17T01:01:18;18.76;66.96
72288;SHT31;60221;45.696;16.076;2022-09-17T01:03:44;18.74;66.90
72288;SHT31;60221;45.696;16.076;2022-09-17T01:06:53;18.68;67.47
72288;SHT31;60221;45.696;16.076;2022-09-17T01:09:45;18.62;67.29
72288;SHT31;60221;45.696;16.076;2022-09-17T01:27:17;18.27;68.66
72288;SHT31;60221;45.696;16.076;2022-09-17T01:33:00;19.26;68.20
72288;SHT31;60221;45.696;16.076;2022-09-17T01:35:41;19.33;66.03
72288;SHT31;60221;45.696;16.076;2022-09-17T01:38:22;19.23;66.18
72288;SHT31;60221;45.696;16.076;2022-09-17T01:40:58;19.29;66.35
72288;SHT31;60221;45.696;16.076;2022-09-17T01:43:30;19.38;65.65
72288;SHT31;60221;45.696;16.076;2022-09-17T01:46:09;19.36;65.65
72288;SHT31;60221;45.696;16.076;2022-09-17T01:48:39;19.32;65.08
72288;SHT31;60221;45.696;16.076;2022-09-17T01:51:10;19.32;65.21
72288;SHT31;60221;45.696;16.076;2022-09-17T01:53:52;19.23;64.95
72288;SHT31;60221;45.696;16.076;2022-09-17T01:56:13;19.23;65.53
72288;SHT31;60221;45.696;16.076;2022-09-17T01:58:49;19.29;65.87
72288;SHT31;60221;45.696;16.076;2022-09-17T02:01:19;19.35;65.65
72288;SHT31;60221;45.696;16.076;2022-09-17T02:03:53;19.42;65.99
72288;SHT31;60221;45.696;16.076;2022-09-17T02:06:28;19.48;65.94
72288;SHT31;60221;45.696;16.076;2022-09-17T02:08:56;19.59;65.98
72288;SHT31;60221;45.696;16.076;2022-09-17T02:11:23;19.63;65.70
72288;SHT31;60221;45.696;16.076;2022-09-17T02:14:06;19.68;65.04
72288;SHT31;60221;45.696;16.076;2022-09-17T02:17:11;19.74;64.76
72288;SHT31;60221;45.696;16.076;2022-09-17T02:19:39;19.69;64.25
72288;SHT31;60221;45.696;16.076;2022-09-17T02:25:01;19.73;63.87
72288;SHT31;60221;45.696;16.076;2022-09-17T02:27:59;19.68;63.27
72288;SHT31;60221;45.696;16.076;2022-09-17T02:30:25;19.59;63.10
72288;SHT31;60221;45.696;16.076;2022-09-17T02:32:54;19.55;63.46
72288;SHT31;60221;45.696;16.076;2022-09-17T02:35:21;19.55;62.74
72288;SHT31;60221;45.696;16.076;2022-09-17T02:37:47;19.50;62.91
72288;SHT31;60221;45.696;16.076;2022-09-17T02:40:17;19.45;63.45
72288;SHT31;60221;45.696;16.076;2022-09-17T02:42:58;19.42;63.90
72288;SHT31;60221;45.696;16.076;2022-09-17T03:00:13;19.39;63.18
72288;SHT31;60221;45.696;16.076;2022-09-17T03:03:03;19.36;62.85
72288;SHT31;60221;45.696;16.076;2022-09-17T03:05:31;19.38;63.56
72288;SHT31;60221;45.696;16.076;2022-09-17T03:07:59;19.52;62.95
72288;SHT31;60221;45.696;16.076;2022-09-17T03:10:26;19.36;62.77
72288;SHT31;60221;45.696;16.076;2022-09-17T03:12:54;19.21;62.84
72288;SHT31;60221;45.696;16.076;2022-09-17T03:15:20;19.10;63.25
72288;SHT31;60221;45.696;16.076;2022-09-17T03:17:47;19.08;63.44
72288;SHT31;60221;45.696;16.076;2022-09-17T03:20:13;19.00;63.96
72288;SHT31;60221;45.696;16.076;2022-09-17T03:22:41;18.94;64.24
72288;SHT31;60221;45.696;16.076;2022-09-17T03:25:08;18.91;64.38
72288;SHT31;60221;45.696;16.076;2022-09-17T03:27:34;18.90;64.29
72288;SHT31;60221;45.696;16.076;2022-09-17T03:30:00;18.82;64.10
72288;SHT31;60221;45.696;16.076;2022-09-17T03:32:26;18.70;64.45
72288;SHT31;60221;45.696;16.076;2022-09-17T03:34:52;18.64;64.88
72288;SHT31;60221;45.696;16.076;2022-09-17T03:37:20;18.56;65.10
72288;SHT31;60221;45.696;16.076;2022-09-17T03:39:46;18.55;65.44
72288;SHT31;60221;45.696;16.076;2022-09-17T03:42:12;18.52;65.65
72288;SHT31;60221;45.696;16.076;2022-09-17T03:44:39;18.43;65.30
72288;SHT31;60221;45.696;16.076;2022-09-17T03:47:05;18.40;65.92
72288;SHT31;60221;45.696;16.076;2022-09-17T03:49:31;18.35;66.11
72288;SHT31;60221;45.696;16.076;2022-09-17T03:51:58;18.35;65.82
72288;SHT31;60221;45.696;16.076;2022-09-17T03:54:24;18.31;65.60
72288;SHT31;60221;45.696;16.076;2022-09-17T03:56:50;18.29;65.97
72288;SHT31;60221;45.696;16.076;2022-09-17T03:59:16;18.24;66.29
72288;SHT31;60221;45.696;16.076;2022-09-17T04:01:42;18.20;66.48
72288;SHT31;60221;45.696;16.076;2022-09-17T04:04:08;18.18;67.05
72288;SHT31;60221;45.696;16.076;2022-09-17T04:06:34;18.13;67.30
72288;SHT31;60221;45.696;16.076;2022-09-17T04:09:01;18.11;67.25
72288;SHT31;60221;45.696;16.076;2022-09-17T04:11:29;18.08;67.44
72288;SHT31;60221;45.696;16.076;2022-09-17T04:13:55;18.13;67.99
72288;SHT31;60221;45.696;16.076;2022-09-17T04:16:21;18.45;68.55
72288;SHT31;60221;45.696;16.076;2022-09-17T04:18:47;18.70;67.66
72288;SHT31;60221;45.696;16.076;2022-09-17T04:21:14;18.88;66.69
72288;SHT31;60221;45.696;16.076;2022-09-17T04:23:40;19.03;65.95
72288;SHT31;60221;45.696;16.076;2022-09-17T04:26:06;19.05;65.57
72288;SHT31;60221;45.696;16.076;2022-09-17T04:28:32;19.15;65.54
72288;SHT31;60221;45.696;16.076;2022-09-17T04:30:58;19.23;65.26
72288;SHT31;60221;45.696;16.076;2022-09-17T04:33:24;19.33;64.75
72288;SHT31;60221;45.696;16.076;2022-09-17T04:35:51;19.46;64.34
72288;SHT31;60221;45.696;16.076;2022-09-17T04:38:18;19.52;63.51
72288;SHT31;60221;45.696;16.076;2022-09-17T04:40:45;19.66;63.59
72288;SHT31;60221;45.696;16.076;2022-09-17T04:43:13;19.72;63.31
72288;SHT31;60221;45.696;16.076;2022-09-17T04:45:40;19.76;63.36
72288;SHT31;60221;45.696;16.076;2022-09-17T04:48:06;19.81;63.02
72288;SHT31;60221;45.696;16.076;2022-09-17T04:50:32;19.84;62.60
72288;SHT31;60221;45.696;16.076;2022-09-17T04:52:58;19.74;61.97
72288;SHT31;60221;45.696;16.076;2022-09-17T04:55:24;19.63;62.35
72288;SHT31;60221;45.696;16.076;2022-09-17T04:57:52;19.55;62.44
72288;SHT31;60221;45.696;16.076;2022-09-17T05:00:21;19.38;62.64
72288;SHT31;60221;45.696;16.076;2022-09-17T05:02:51;19.31;63.15
72288;SHT31;60221;45.696;16.076;2022-09-17T05:05:18;19.23;63.36
72288;SHT31;60221;45.696;16.076;2022-09-17T05:07:45;19.17;63.79
72288;SHT31;60221;45.696;16.076;2022-09-17T05:10:14;19.12;63.95
72288;SHT31;60221;45.696;16.076;2022-09-17T05:12:52;19.11;64.14
72288;SHT31;60221;45.696;16.076;2022-09-17T05:15:15;19.15;64.28
72288;SHT31;60221;45.696;16.076;2022-09-17T05:17:41;19.14;64.36
72288;SHT31;60221;45.696;16.076;2022-09-17T05:20:09;19.12;64.43
72288;SHT31;60221;45.696;16.076;2022-09-17T05:22:46;19.15;64.64
72288;SHT31;60221;45.696;16.076;2022-09-17T05:25:12;19.17;64.54
72288;SHT31;60221;45.696;16.076;2022-09-17T05:27:39;19.17;64.54
72288;SHT31;60221;45.696;16.076;2022-09-17T05:30:07;19.15;64.52
72288;SHT31;60221;45.696;16.076;2022-09-17T05:32:35;19.15;64.42
72288;SHT31;60221;45.696;16.076;2022-09-17T05:35:04;19.18;64.51
72288;SHT31;60221;45.696;16.076;2022-09-17T05:37:30;19.18;64.76
72288;SHT31;60221;45.696;16.076;2022-09-17T05:39:56;19.21;64.63
72288;SHT31;60221;45.696;16.076;2022-09-17T05:42:22;19.23;64.69
72288;SHT31;60221;45.696;16.076;2022-09-17T05:44:49;19.19;64.60
72288;SHT31;60221;45.696;16.076;2022-09-17T05:47:16;19.21;64.63
72288;SHT31;60221;45.696;16.076;2022-09-17T05:49:42;19.26;64.87
72288;SHT31;60221;45.696;16.076;2022-09-17T05:52:08;19.31;64.71
72288;SHT31;60221;45.696;16.076;2022-09-17T05:54:35;19.33;64.50
72288;SHT31;60221;45.696;16.076;2022-09-17T05:57:01;19.39;64.31
72288;SHT31;60221;45.696;16.076;2022-09-17T05:59:27;19.44;64.44
72288;SHT31;60221;45.696;16.076;2022-09-17T06:01:53;19.55;64.03
72288;SHT31;60221;45.696;16.076;2022-09-17T06:04:19;19.58;63.68
72288;SHT31;60221;45.696;16.076;2022-09-17T06:06:45;19.49;63.43
72288;SHT31;60221;45.696;16.076;2022-09-17T06:09:11;19.46;63.62
72288;SHT31;60221;45.696;16.076;2022-09-17T06:11:37;19.52;63.73
72288;SHT31;60221;45.696;16.076;2022-09-17T06:14:03;19.56;63.68
72288;SHT31;60221;45.696;16.076;2022-09-17T06:16:30;19.62;63.35
72288;SHT31;60221;45.696;16.076;2022-09-17T06:18:56;19.62;63.26
72288;SHT31;60221;45.696;16.076;2022-09-17T06:21:23;19.65;63.13
72288;SHT31;60221;45.696;16.076;2022-09-17T06:23:50;19.69;63.37
72288;SHT31;60221;45.696;16.076;2022-09-17T06:26:16;19.68;63.11
72288;SHT31;60221;45.696;16.076;2022-09-17T06:28:44;19.73;62.87
72288;SHT31;60221;45.696;16.076;2022-09-17T06:31:12;19.79;63.17
72288;SHT31;60221;45.696;16.076;2022-09-17T06:33:39;19.81;62.92
72288;SHT31;60221;45.696;16.076;2022-09-17T06:36:09;19.83;62.93
72288;SHT31;60221;45.696;16.076;2022-09-17T06:38:37;19.84;61.91
72288;SHT31;60221;45.696;16.076;2022-09-17T06:41:03;19.88;61.34
72288;SHT31;60221;45.696;16.076;2022-09-17T06:43:30;19.88;61.26
72288;SHT31;60221;45.696;16.076;2022-09-17T06:46:00;19.94;61.39
72288;SHT31;60221;45.696;16.076;2022-09-17T06:48:29;19.93;60.91
72288;SHT31;60221;45.696;16.076;2022-09-17T06:51:03;19.90;60.39
72288;SHT31;60221;45.696;16.076;2022-09-17T06:53:30;19.87;60.73
72288;SHT31;60221;45.696;16.076;2022-09-17T06:55:58;19.83;60.69
72288;SHT31;60221;45.696;16.076;2022-09-17T06:58:25;19.77;60.94
72288;SHT31;60221;45.696;16.076;2022-09-17T07:00:59;19.73;61.25
72288;SHT31;60221;45.696;16.076;2022-09-17T07:03:28;19.50;61.16
72288;SHT31;60221;45.696;16.076;2022-09-17T07:05:55;19.38;61.53
72288;SHT31;60221;45.696;16.076;2022-09-17T07:08:21;19.31;61.61
72288;SHT31;60221;45.696;16.076;2022-09-17T07:10:48;19.26;61.79
72288;SHT31;60221;45.696;16.076;2022-09-17T07:13:15;19.22;61.96
72288;SHT31;60221;45.696;16.076;2022-09-17T07:15:41;19.19;62.00
72288;SHT31;60221;45.696;16.076;2022-09-17T07:18:09;19.23;62.28
72288;SHT31;60221;45.696;16.076;2022-09-17T07:20:37;19.33;62.77
72288;SHT31;60221;45.696;16.076;2022-09-17T07:23:04;19.36;62.24
72288;SHT31;60221;45.696;16.076;2022-09-17T07:25:30;19.35;61.96
72288;SHT31;60221;45.696;16.076;2022-09-17T07:27:56;19.45;61.45
72288;SHT31;60221;45.696;16.076;2022-09-17T07:30:22;19.45;61.29
72288;SHT31;60221;45.696;16.076;2022-09-17T07:32:48;19.41;61.64
72288;SHT31;60221;45.696;16.076;2022-09-17T07:35:14;19.38;62.01
72288;SHT31;60221;45.696;16.076;2022-09-17T07:37:41;19.41;62.21
72288;SHT31;60221;45.696;16.076;2022-09-17T07:40:07;19.33;61.52
72288;SHT31;60221;45.696;16.076;2022-09-17T07:42:34;19.26;61.78
72288;SHT31;60221;45.696;16.076;2022-09-17T07:45:00;19.18;62.23
72288;SHT31;60221;45.696;16.076;2022-09-17T07:47:26;19.04;62.52
72288;SHT31;60221;45.696;16.076;2022-09-17T07:49:52;18.88;62.69
72288;SHT31;60221;45.696;16.076;2022-09-17T07:52:19;18.86;63.31
72288;SHT31;60221;45.696;16.076;2022-09-17T07:54:45;18.90;62.97
72288;SHT31;60221;45.696;16.076;2022-09-17T07:57:11;18.82;62.72
72288;SHT31;60221;45.696;16.076;2022-09-17T07:59:37;18.68;63.32
72288;SHT31;60221;45.696;16.076;2022-09-17T08:02:08;18.88;63.19
72288;SHT31;60221;45.696;16.076;2022-09-17T08:04:33;18.76;62.81
72288;SHT31;60221;45.696;16.076;2022-09-17T08:07:00;18.56;63.43
72288;SHT31;60221;45.696;16.076;2022-09-17T08:09:27;18.49;63.90
72288;SHT31;60221;45.696;16.076;2022-09-17T08:11:53;18.63;65.63
72288;SHT31;60221;45.696;16.076;2022-09-17T08:14:20;19.15;63.54
72288;SHT31;60221;45.696;16.076;2022-09-17T08:16:46;19.05;62.67
72288;SHT31;60221;45.696;16.076;2022-09-17T08:19:13;18.95;62.47
72288;SHT31;60221;45.696;16.076;2022-09-17T08:21:39;18.76;62.67
72288;SHT31;60221;45.696;16.076;2022-09-17T08:24:06;18.67;63.00
72288;SHT31;60221;45.696;16.076;2022-09-17T08:26:33;18.49;63.29
72288;SHT31;60221;45.696;16.076;2022-09-17T08:28:59;18.28;63.73
72288;SHT31;60221;45.696;16.076;2022-09-17T08:31:26;18.09;64.03
72288;SHT31;60221;45.696;16.076;2022-09-17T08:33:54;17.92;64.40
72288;SHT31;60221;45.696;16.076;2022-09-17T08:36:21;17.87;65.07
72288;SHT31;60221;45.696;16.076;2022-09-17T08:38:55;17.94;65.12
72288;SHT31;60221;45.696;16.076;2022-09-17T08:44:42;18.15;64.59
72288;SHT31;60221;45.696;16.076;2022-09-17T08:47:25;18.20;64.03
72288;SHT31;60221;45.696;16.076;2022-09-17T08:49:55;18.25;64.31
72288;SHT31;60221;45.696;16.076;2022-09-17T08:55:42;18.43;64.08
72288;SHT31;60221;45.696;16.076;2022-09-17T09:01:59;18.57;63.04
72288;SHT31;60221;45.696;16.076;2022-09-17T09:05:21;18.45;63.63
72288;SHT31;60221;45.696;16.076;2022-09-17T09:07:26;18.46;63.90
72288;SHT31;60221;45.696;16.076;2022-09-17T09:12:34;18.53;64.09
72288;SHT31;60221;45.696;16.076;2022-09-17T09:15:42;18.56;64.05
72288;SHT31;60221;45.696;16.076;2022-09-17T09:18:19;18.55;63.76
72288;SHT31;60221;45.696;16.076;2022-09-17T09:21:02;18.59;64.54
72288;SHT31;60221;45.696;16.076;2022-09-17T09:23:52;18.63;64.16
72288;SHT31;60221;45.696;16.076;2022-09-17T09:26:22;18.66;63.75
72288;SHT31;60221;45.696;16.076;2022-09-17T09:29:22;18.68;63.86
72288;SHT31;60221;45.696;16.076;2022-09-17T09:34:52;18.84;63.38
72288;SHT31;60221;45.696;16.076;2022-09-17T09:37:30;19.17;63.56
72288;SHT31;60221;45.696;16.076;2022-09-17T09:40:15;19.66;61.86
72288;SHT31;60221;45.696;16.076;2022-09-17T09:42:35;19.98;61.39
72288;SHT31;60221;45.696;16.076;2022-09-17T09:45:18;20.20;59.72
72288;SHT31;60221;45.696;16.076;2022-09-17T09:50:49;19.53;58.39
72288;SHT31;60221;45.696;16.076;2022-09-17T09:56:46;18.50;64.84
72288;SHT31;60221;45.696;16.076;2022-09-17T09:59:11;18.95;62.98
72288;SHT31;60221;45.696;16.076;2022-09-17T10:01:42;19.08;62.81
72288;SHT31;60221;45.696;16.076;2022-09-17T10:06:51;18.98;62.23
72288;SHT31;60221;45.696;16.076;2022-09-17T10:09:20;19.25;63.07
72288;SHT31;60221;45.696;16.076;2022-09-17T10:14:43;20.51;59.58
72288;SHT31;60221;45.696;16.076;2022-09-17T10:17:25;20.31;56.70
72288;SHT31;60221;45.696;16.076;2022-09-17T10:22:39;18.67;59.83
72288;SHT31;60221;45.696;16.076;2022-09-17T10:27:55;19.22;64.61
72288;SHT31;60221;45.696;16.076;2022-09-17T10:30:22;20.48;59.82
72288;SHT31;60221;45.696;16.076;2022-09-17T10:36:03;19.91;56.92
72288;SHT31;60221;45.696;16.076;2022-09-17T10:38:41;19.11;58.12
72288;SHT31;60221;45.696;16.076;2022-09-17T10:41:20;18.57;60.54
72288;SHT31;60221;45.696;16.076;2022-09-17T10:43:48;18.13;62.96
72288;SHT31;60221;45.696;16.076;2022-09-17T10:46:28;18.83;66.43
72288;SHT31;60221;45.696;16.076;2022-09-17T10:49:13;19.90;61.31
72288;SHT31;60221;45.696;16.076;2022-09-17T10:51:39;20.29;61.06
72288;SHT31;60221;45.696;16.076;2022-09-17T11:00:21;18.39;59.25
72288;SHT31;60221;45.696;16.076;2022-09-17T11:14:53;19.79;57.64
72288;SHT31;60221;45.696;16.076;2022-09-17T11:20:44;17.90;60.41
72288;SHT31;60221;45.696;16.076;2022-09-17T11:26:36;17.92;65.78
72288;SHT31;60221;45.696;16.076;2022-09-17T11:35:10;18.08;62.48
72288;SHT31;60221;45.696;16.076;2022-09-17T11:40:54;17.98;62.96
72288;SHT31;60221;45.696;16.076;2022-09-17T11:43:24;17.92;62.78
72288;SHT31;60221;45.696;16.076;2022-09-17T11:48:52;17.70;63.59
72288;SHT31;60221;45.696;16.076;2022-09-17T11:51:25;17.69;63.78
72288;SHT31;60221;45.696;16.076;2022-09-17T11:57:26;17.74;64.40
72288;SHT31;60221;45.696;16.076;2022-09-17T12:00:04;17.77;64.13
72288;SHT31;60221;45.696;16.076;2022-09-17T12:03:03;17.81;64.63
72288;SHT31;60221;45.696;16.076;2022-09-17T12:13:52;18.04;64.91
72288;SHT31;60221;45.696;16.076;2022-09-17T12:16:39;18.00;64.23
72288;SHT31;60221;45.696;16.076;2022-09-17T12:19:33;18.35;65.24
72288;SHT31;60221;45.696;16.076;2022-09-17T12:22:07;18.88;64.13
72288;SHT31;60221;45.696;16.076;2022-09-17T12:24:34;19.08;62.87
72288;SHT31;60221;45.696;16.076;2022-09-17T12:27:26;19.39;61.83
72288;SHT31;60221;45.696;16.076;2022-09-17T12:30:22;19.21;60.74
72288;SHT31;60221;45.696;16.076;2022-09-17T12:45:14;17.39;61.81
72288;SHT31;60221;45.696;16.076;2022-09-17T12:50:42;17.36;66.28
72288;SHT31;60221;45.696;16.076;2022-09-17T13:01:37;17.90;63.65
72288;SHT31;60221;45.696;16.076;2022-09-17T13:13:21;17.67;63.95
72288;SHT31;60221;45.696;16.076;2022-09-17T13:16:08;17.74;64.66
72288;SHT31;60221;45.696;16.076;2022-09-17T13:21:50;18.15;64.06
72288;SHT31;60221;45.696;16.076;2022-09-17T13:24:25;18.29;63.35
72288;SHT31;60221;45.696;16.076;2022-09-17T13:26:52;18.39;63.28
72288;SHT31;60221;45.696;16.076;2022-09-17T13:37:57;18.76;61.89
72288;SHT31;60221;45.696;16.076;2022-09-17T13:40:35;18.83;61.48
72288;SHT31;60221;45.696;16.076;2022-09-17T13:43:16;18.93;60.99
72288;SHT31;60221;45.696;16.076;2022-09-17T13:48:35;18.67;60.95
72288;SHT31;60221;45.696;16.076;2022-09-17T13:54:04;18.28;61.25
72288;SHT31;60221;45.696;16.076;2022-09-17T13:56:39;18.39;62.91
72288;SHT31;60221;45.696;16.076;2022-09-17T13:59:13;18.73;61.55
72288;SHT31;60221;45.696;16.076;2022-09-17T14:04:47;18.91;61.19
72288;SHT31;60221;45.696;16.076;2022-09-17T14:12:57;19.32;58.48
72288;SHT31;60221;45.696;16.076;2022-09-17T14:18:33;17.63;59.14
72288;SHT31;60221;45.696;16.076;2022-09-17T14:21:11;17.06;60.98
72288;SHT31;60221;45.696;16.076;2022-09-17T14:23:49;16.63;62.76
72288;SHT31;60221;45.696;16.076;2022-09-17T14:26:26;16.59;65.03
72288;SHT31;60221;45.696;16.076;2022-09-17T14:28:58;16.51;65.01
72288;SHT31;60221;45.696;16.076;2022-09-17T14:31:28;16.41;65.35
72288;SHT31;60221;45.696;16.076;2022-09-17T14:33:54;16.47;67.42
72288;SHT31;60221;45.696;16.076;2022-09-17T14:36:23;17.49;70.15
72288;SHT31;60221;45.696;16.076;2022-09-17T14:38:56;18.38;66.05
72288;SHT31;60221;45.696;16.076;2022-09-17T14:41:33;18.63;63.42
72288;SHT31;60221;45.696;16.076;2022-09-17T14:44:01;18.83;62.19
72288;SHT31;60221;45.696;16.076;2022-09-17T14:46:39;18.78;61.55
72288;SHT31;60221;45.696;16.076;2022-09-17T14:49:25;18.74;61.14
72288;SHT31;60221;45.696;16.076;2022-09-17T14:51:54;18.90;61.69
72288;SHT31;60221;45.696;16.076;2022-09-17T14:54:23;19.15;61.15
72288;SHT31;60221;45.696;16.076;2022-09-17T14:59:56;19.22;60.27
72288;SHT31;60221;45.696;16.076;2022-09-17T15:02:37;19.69;59.58
72288;SHT31;60221;45.696;16.076;2022-09-17T15:08:20;18.39;58.30
72288;SHT31;60221;45.696;16.076;2022-09-17T15:10:54;17.59;58.70
72288;SHT31;60221;45.696;16.076;2022-09-17T15:13:40;17.04;61.66
72288;SHT31;60221;45.696;16.076;2022-09-17T15:16:21;17.70;66.50
72288;SHT31;60221;45.696;16.076;2022-09-17T15:18:53;19.01;64.13
72288;SHT31;60221;45.696;16.076;2022-09-17T15:21:43;19.69;60.49
72288;SHT31;60221;45.696;16.076;2022-09-17T15:24:42;19.96;58.84
72288;SHT31;60221;45.696;16.076;2022-09-17T15:27:26;19.10;56.88
72288;SHT31;60221;45.696;16.076;2022-09-17T15:30:20;18.09;58.03
72288;SHT31;60221;45.696;16.076;2022-09-17T15:32:53;17.26;59.15
72288;SHT31;60221;45.696;16.076;2022-09-17T15:35:27;16.78;60.40
72288;SHT31;60221;45.696;16.076;2022-09-17T15:37:58;16.39;62.70
72288;SHT31;60221;45.696;16.076;2022-09-17T15:40:39;16.99;67.07
72288;SHT31;60221;45.696;16.076;2022-09-17T15:43:31;18.04;64.74
72288;SHT31;60221;45.696;16.076;2022-09-17T15:46:28;18.36;62.62
72288;SHT31;60221;45.696;16.076;2022-09-17T15:48:46;18.50;61.63
72288;SHT31;60221;45.696;16.076;2022-09-17T15:51:26;18.64;61.12
72288;SHT31;60221;45.696;16.076;2022-09-17T15:53:59;18.88;60.93
72288;SHT31;60221;45.696;16.076;2022-09-17T15:56:33;19.01;59.76
72288;SHT31;60221;45.696;16.076;2022-09-17T15:59:04;19.07;59.53
72288;SHT31;60221;45.696;16.076;2022-09-17T16:04:19;17.81;58.71
72288;SHT31;60221;45.696;16.076;2022-09-17T16:09:52;16.54;61.33
72288;SHT31;60221;45.696;16.076;2022-09-17T16:12:20;16.96;66.02
72288;SHT31;60221;45.696;16.076;2022-09-17T16:14:55;17.87;65.52
72288;SHT31;60221;45.696;16.076;2022-09-17T16:17:44;18.46;63.41
72288;SHT31;60221;45.696;16.076;2022-09-17T16:20:22;18.74;61.86
72288;SHT31;60221;45.696;16.076;2022-09-17T16:22:51;19.32;61.88
72288;SHT31;60221;45.696;16.076;2022-09-17T16:25:23;19.60;59.36
72288;SHT31;60221;45.696;16.076;2022-09-17T16:27:58;19.12;56.72
72288;SHT31;60221;45.696;16.076;2022-09-17T16:30:26;18.13;57.96
72288;SHT31;60221;45.696;16.076;2022-09-17T16:32:52;17.40;59.14
72288;SHT31;60221;45.696;16.076;2022-09-17T16:35:24;16.82;60.05
72288;SHT31;60221;45.696;16.076;2022-09-17T16:37:53;16.36;61.93
72288;SHT31;60221;45.696;16.076;2022-09-17T16:40:23;16.79;66.94
72288;SHT31;60221;45.696;16.076;2022-09-17T16:42:49;17.92;66.08
72288;SHT31;60221;45.696;16.076;2022-09-17T16:45:16;18.52;62.42
72288;SHT31;60221;45.696;16.076;2022-09-17T16:47:42;18.67;61.24
72288;SHT31;60221;45.696;16.076;2022-09-17T16:50:13;18.90;60.42
72288;SHT31;60221;45.696;16.076;2022-09-17T16:52:40;19.12;60.01
72288;SHT31;60221;45.696;16.076;2022-09-17T16:55:09;19.26;59.12
72288;SHT31;60221;45.696;16.076;2022-09-17T16:57:35;18.78;57.06
72288;SHT31;60221;45.696;16.076;2022-09-17T17:00:05;17.97;57.83
72288;SHT31;60221;45.696;16.076;2022-09-17T17:02:32;17.26;59.07
72288;SHT31;60221;45.696;16.076;2022-09-17T17:04:58;16.75;60.53
72288;SHT31;60221;45.696;16.076;2022-09-17T17:07:24;16.33;62.10
72288;SHT31;60221;45.696;16.076;2022-09-17T17:09:50;16.49;65.69
72288;SHT31;60221;45.696;16.076;2022-09-17T17:12:16;17.30;66.51
72288;SHT31;60221;45.696;16.076;2022-09-17T17:14:42;17.70;63.65
72288;SHT31;60221;45.696;16.076;2022-09-17T17:17:11;17.88;62.77
72288;SHT31;60221;45.696;16.076;2022-09-17T17:19:37;17.87;62.06
72288;SHT31;60221;45.696;16.076;2022-09-17T17:22:03;18.08;61.80
72288;SHT31;60221;45.696;16.076;2022-09-17T17:24:31;18.09;61.08
72288;SHT31;60221;45.696;16.076;2022-09-17T17:26:57;18.11;61.23
72288;SHT31;60221;45.696;16.076;2022-09-17T17:29:23;18.16;61.24
72288;SHT31;60221;45.696;16.076;2022-09-17T17:31:49;18.13;61.06
72288;SHT31;60221;45.696;16.076;2022-09-17T17:34:16;18.13;60.69
72288;SHT31;60221;45.696;16.076;2022-09-17T17:36:42;18.12;60.70
72288;SHT31;60221;45.696;16.076;2022-09-17T17:39:08;18.05;60.59
72288;SHT31;60221;45.696;16.076;2022-09-17T17:41:34;18.04;60.72
72288;SHT31;60221;45.696;16.076;2022-09-17T17:44:01;18.12;60.62
72288;SHT31;60221;45.696;16.076;2022-09-17T17:46:27;18.07;60.32
72288;SHT31;60221;45.696;16.076;2022-09-17T17:48:53;18.00;60.38
72288;SHT31;60221;45.696;16.076;2022-09-17T17:51:19;17.92;60.56
72288;SHT31;60221;45.696;16.076;2022-09-17T17:53:47;18.09;61.54
72288;SHT31;60221;45.696;16.076;2022-09-17T17:56:13;18.22;60.58
72288;SHT31;60221;45.696;16.076;2022-09-17T17:58:40;18.16;60.01
72288;SHT31;60221;45.696;16.076;2022-09-17T18:01:17;18.16;60.35
72288;SHT31;60221;45.696;16.076;2022-09-17T18:03:44;18.19;60.45
72288;SHT31;60221;45.696;16.076;2022-09-17T18:06:11;18.18;60.24
72288;SHT31;60221;45.696;16.076;2022-09-17T18:08:40;18.25;59.97
72288;SHT31;60221;45.696;16.076;2022-09-17T18:11:09;18.22;60.32
72288;SHT31;60221;45.696;16.076;2022-09-17T18:13:38;18.76;60.48
72288;SHT31;60221;45.696;16.076;2022-09-17T18:16:06;19.07;58.44
72288;SHT31;60221;45.696;16.076;2022-09-17T18:18:41;18.38;56.81
72288;SHT31;60221;45.696;16.076;2022-09-17T18:21:12;17.44;57.41
72288;SHT31;60221;45.696;16.076;2022-09-17T18:23:42;16.75;60.02
72288;SHT31;60221;45.696;16.076;2022-09-17T18:26:15;16.17;60.19
72288;SHT31;60221;45.696;16.076;2022-09-17T18:28:39;15.74;61.30
72288;SHT31;60221;45.696;16.076;2022-09-17T18:31:12;15.33;62.16
72288;SHT31;60221;45.696;16.076;2022-09-17T18:33:36;15.69;67.48
72288;SHT31;60221;45.696;16.076;2022-09-17T18:36:04;16.84;68.71
72288;SHT31;60221;45.696;16.076;2022-09-17T18:38:32;17.76;64.94
72288;SHT31;60221;45.696;16.076;2022-09-17T18:41:06;18.11;62.01
72288;SHT31;60221;45.696;16.076;2022-09-17T18:43:33;18.12;61.14
72288;SHT31;60221;45.696;16.076;2022-09-17T18:46:00;18.15;61.04
72288;SHT31;60221;45.696;16.076;2022-09-17T18:48:27;18.27;59.78
72288;SHT31;60221;45.696;16.076;2022-09-17T18:51:03;18.18;59.44
72288;SHT31;60221;45.696;16.076;2022-09-17T18:53:37;17.76;57.96
72288;SHT31;60221;45.696;16.076;2022-09-17T18:56:17;17.01;59.16
72288;SHT31;60221;45.696;16.076;2022-09-17T18:58:46;16.33;59.68
72288;SHT31;60221;45.696;16.076;2022-09-17T19:01:13;15.88;60.57